createdAt,value
2022-11-12T00:01:36.638Z,8.10
2022-11-12T00:04:22.205Z,8.00
2022-11-12T00:07:08.101Z,8.00
2022-11-12T00:09:53.546Z,8.10
2022-11-12T00:12:39.192Z,8.00
2022-11-12T00:15:25.435Z,8.00
2022-11-12T00:18:10.765Z,8.00
2022-11-12T00:20:56.404Z,8.00
2022-11-12T00:23:42.017Z,8.00
2022-11-12T00:26:27.800Z,8.00
2022-11-12T00:29:13.301Z,8.00
2022-11-12T00:34:44.595Z,7.90
2022-11-12T00:37:30.456Z,7.90
2022-11-12T00:40:16.167Z,7.80
2022-11-12T00:43:01.705Z,7.80
2022-11-12T00:45:46.998Z,7.80
2022-11-12T00:48:32.569Z,7.80
2022-11-12T00:51:18.391Z,7.80
2022-11-12T00:54:03.852Z,7.80
2022-11-12T00:56:49.468Z,7.80
2022-11-12T00:59:35.127Z,8.00
2022-11-12T01:02:22.214Z,7.90
2022-11-12T01:05:08.172Z,7.90
2022-11-12T01:07:56.152Z,7.80
2022-11-12T01:10:42.271Z,7.80
2022-11-12T01:13:27.735Z,7.70
2022-11-12T01:16:22.034Z,7.70
2022-11-12T01:19:10.108Z,7.70
2022-11-12T01:21:55.998Z,7.60
2022-11-12T01:24:41.439Z,7.50
2022-11-12T01:27:27.048Z,7.50
2022-11-12T01:30:12.383Z,7.50
2022-11-12T01:32:57.786Z,7.50
2022-11-12T01:35:43.367Z,7.50
2022-11-12T01:38:29.063Z,7.50
2022-11-12T01:41:19.035Z,7.50
2022-11-12T01:44:12.474Z,7.50
2022-11-12T01:47:00.840Z,7.60
2022-11-12T01:49:53.381Z,7.50
2022-11-12T01:52:48.833Z,7.50
2022-11-12T01:55:37.232Z,7.50
2022-11-12T01:58:27.173Z,7.40
2022-11-12T02:01:13.175Z,7.40
2022-11-12T02:03:58.973Z,7.40
2022-11-12T02:06:45.638Z,7.30
2022-11-12T02:09:31.970Z,7.30
2022-11-12T02:12:35.943Z,7.30
2022-11-12T02:15:21.225Z,7.30
2022-11-12T02:18:07.416Z,7.30
2022-11-12T02:20:58.090Z,7.20
2022-11-12T02:23:43.659Z,7.20
2022-11-12T02:26:35.408Z,7.20
2022-11-12T02:29:22.017Z,7.30
2022-11-12T02:32:07.326Z,7.30
2022-11-12T02:34:52.741Z,7.20
2022-11-12T02:37:38.344Z,7.20
2022-11-12T02:40:23.774Z,7.10
2022-11-12T02:43:09.415Z,7.10
2022-11-12T02:45:55.019Z,7.10
2022-11-12T02:48:40.291Z,7.10
2022-11-12T02:51:25.831Z,7.00
2022-11-12T02:54:11.346Z,7.00
2022-11-12T02:56:57.056Z,7.00
2022-11-12T02:59:42.503Z,6.90
2022-11-12T03:02:28.231Z,6.90
2022-11-12T03:05:14.878Z,6.90
2022-11-12T03:08:02.525Z,6.90
2022-11-12T03:10:47.882Z,6.80
2022-11-12T03:13:33.394Z,6.80
2022-11-12T03:16:18.929Z,6.80
2022-11-12T03:19:04.529Z,6.80
2022-11-12T03:21:50.093Z,6.90
2022-11-12T03:24:35.799Z,6.80
2022-11-12T03:27:21.353Z,6.80
2022-11-12T03:30:07.242Z,6.90
2022-11-12T03:32:53.052Z,6.90
2022-11-12T03:35:39.215Z,7.00
2022-11-12T03:38:25.307Z,6.90
2022-11-12T03:41:11.158Z,6.90
2022-11-12T03:43:56.674Z,6.90
2022-11-12T03:46:44.407Z,6.90
2022-11-12T03:49:30.070Z,6.80
2022-11-12T03:52:15.645Z,6.80
2022-11-12T03:55:01.197Z,6.70
2022-11-12T03:57:48.985Z,6.60
2022-11-12T04:00:34.450Z,6.50
2022-11-12T04:03:20.079Z,6.50
2022-11-12T04:06:25.131Z,6.50
2022-11-12T04:09:10.341Z,6.40
2022-11-12T04:11:55.976Z,6.40
2022-11-12T04:14:41.225Z,6.40
2022-11-12T04:17:45.329Z,6.40
2022-11-12T04:20:49.114Z,6.50
2022-11-12T04:23:34.424Z,6.50
2022-11-12T04:26:25.484Z,6.50
2022-11-12T04:29:30.392Z,6.50
2022-11-12T04:32:17.408Z,6.60
2022-11-12T04:35:07.500Z,6.60
2022-11-12T04:37:53.762Z,6.50
2022-11-12T04:40:57.936Z,6.50
2022-11-12T04:46:47.625Z,6.50
2022-11-12T04:49:33.122Z,6.40
2022-11-12T04:52:19.005Z,6.40
2022-11-12T04:55:04.530Z,6.40
2022-11-12T04:57:49.656Z,6.40
2022-11-12T05:00:35.306Z,6.50
2022-11-12T05:03:21.024Z,6.40
2022-11-12T05:06:27.173Z,6.40
2022-11-12T05:09:12.486Z,6.40
2022-11-12T05:11:58.000Z,6.40
2022-11-12T05:14:43.343Z,6.40
2022-11-12T05:17:28.952Z,6.30
2022-11-12T05:20:15.251Z,6.40
2022-11-12T05:23:08.092Z,6.40
2022-11-12T05:25:53.433Z,6.40
2022-11-12T05:28:38.955Z,6.40
2022-11-12T05:31:24.805Z,6.30
2022-11-12T05:34:10.270Z,6.20
2022-11-12T05:36:55.783Z,6.30
2022-11-12T05:39:41.249Z,6.40
2022-11-12T05:42:26.772Z,6.40
2022-11-12T05:45:12.053Z,6.50
2022-11-12T05:47:57.576Z,6.40
2022-11-12T05:51:06.319Z,6.30
2022-11-12T05:53:48.906Z,6.40
2022-11-12T05:56:35.538Z,6.40
2022-11-12T05:59:20.743Z,6.40
2022-11-12T06:02:06.451Z,6.50
2022-11-12T06:04:52.019Z,6.40
2022-11-12T06:07:37.781Z,6.40
2022-11-12T06:10:23.365Z,6.50
2022-11-12T06:13:08.689Z,6.50
2022-11-12T06:15:55.469Z,6.50
2022-11-12T06:18:40.950Z,6.50
2022-11-12T06:21:27.923Z,6.50
2022-11-12T06:24:14.766Z,6.40
2022-11-12T06:27:01.019Z,6.40
2022-11-12T06:29:46.546Z,6.40
2022-11-12T06:32:31.948Z,6.40
2022-11-12T06:35:19.014Z,6.40
2022-11-12T06:38:04.745Z,6.40
2022-11-12T06:40:50.114Z,6.40
2022-11-12T06:43:36.614Z,6.50
2022-11-12T06:46:22.285Z,6.40
2022-11-12T06:49:07.857Z,6.30
2022-11-12T06:51:53.247Z,6.30
2022-11-12T06:54:38.832Z,6.30
2022-11-12T06:57:24.144Z,6.30
2022-11-12T07:00:11.850Z,6.30
2022-11-12T07:02:57.749Z,6.30
2022-11-12T07:05:43.380Z,6.40
2022-11-12T07:08:29.255Z,6.40
2022-11-12T07:11:14.951Z,6.50
2022-11-12T07:14:00.262Z,6.40
2022-11-12T07:16:45.715Z,6.50
2022-11-12T07:19:31.167Z,6.50
2022-11-12T07:22:16.705Z,6.50
2022-11-12T07:25:02.166Z,6.60
2022-11-12T07:27:47.823Z,6.60
2022-11-12T07:30:33.063Z,6.80
2022-11-12T07:33:18.549Z,6.70
2022-11-12T07:36:09.155Z,6.90
2022-11-12T07:38:54.980Z,7.00
2022-11-12T07:41:40.497Z,7.10
2022-11-12T07:44:26.335Z,7.20
2022-11-12T07:47:12.032Z,7.20
2022-11-12T07:49:58.014Z,7.30
2022-11-12T07:52:43.346Z,7.40
2022-11-12T07:55:29.077Z,7.40
2022-11-12T07:58:14.800Z,7.50
2022-11-12T08:01:28.459Z,7.50
2022-11-12T08:04:14.275Z,7.60
2022-11-12T08:06:59.875Z,7.70
2022-11-12T08:09:45.328Z,7.80
2022-11-12T08:12:30.790Z,7.80
2022-11-12T08:15:16.721Z,7.90
2022-11-12T08:18:02.183Z,8.00
2022-11-12T08:20:47.418Z,8.10
2022-11-12T08:23:32.983Z,8.10
2022-11-12T08:26:20.436Z,8.20
2022-11-12T08:29:08.582Z,8.20
2022-11-12T08:31:54.446Z,8.30
2022-11-12T08:34:41.442Z,8.40
2022-11-12T08:37:27.073Z,8.40
2022-11-12T08:40:12.972Z,8.50
2022-11-12T08:43:03.396Z,8.50
2022-11-12T08:45:50.120Z,8.60
2022-11-12T08:48:36.214Z,8.60
2022-11-12T08:51:21.876Z,8.60
2022-11-12T08:54:07.141Z,8.60
2022-11-12T08:56:52.744Z,8.60
2022-11-12T08:59:38.051Z,8.70
2022-11-12T09:02:23.721Z,8.70
2022-11-12T09:05:09.469Z,8.70
2022-11-12T09:08:16.465Z,8.80
2022-11-12T09:11:01.892Z,8.80
2022-11-12T09:13:47.735Z,8.80
2022-11-12T09:16:33.409Z,8.80
2022-11-12T09:19:19.251Z,8.80
2022-11-12T09:22:05.150Z,8.80
2022-11-12T09:24:50.793Z,8.90
2022-11-12T09:27:36.456Z,8.90
2022-11-12T09:30:22.754Z,8.90
2022-11-12T09:33:08.337Z,8.90
2022-11-12T09:35:55.142Z,9.00
2022-11-12T09:38:40.365Z,9.00
2022-11-12T09:41:35.290Z,9.00
2022-11-12T09:44:24.163Z,9.00
2022-11-12T09:47:23.793Z,9.10
2022-11-12T09:50:29.226Z,9.20
2022-11-12T09:53:17.510Z,9.20
2022-11-12T09:56:07.549Z,9.30
2022-11-12T09:58:53.979Z,9.40
2022-11-12T10:02:07.361Z,9.40
2022-11-12T10:05:11.591Z,9.40
2022-11-12T10:08:06.396Z,9.50
2022-11-12T10:11:06.635Z,9.50
2022-11-12T10:14:18.452Z,9.60
2022-11-12T10:17:31.895Z,9.60
2022-11-12T10:20:37.488Z,9.70
2022-11-12T10:23:34.575Z,9.70
2022-11-12T10:26:23.013Z,9.80
2022-11-12T10:29:11.742Z,9.80
2022-11-12T10:31:57.135Z,9.90
2022-11-12T10:34:42.778Z,10.00
2022-11-12T10:37:28.593Z,10.00
2022-11-12T10:40:31.862Z,10.10
2022-11-12T10:43:17.067Z,10.20
2022-11-12T10:46:27.010Z,10.20
2022-11-12T10:49:16.199Z,10.30
2022-11-12T10:52:01.703Z,10.30
2022-11-12T10:54:52.338Z,10.40
2022-11-12T10:57:40.780Z,10.40
2022-11-12T11:00:26.549Z,10.50
2022-11-12T11:03:34.710Z,10.60
2022-11-12T11:06:24.912Z,10.60
2022-11-12T11:09:13.513Z,10.70
2022-11-12T11:11:59.307Z,10.70
2022-11-12T11:14:44.774Z,10.70
2022-11-12T11:17:30.587Z,10.80
2022-11-12T11:21:00.046Z,10.80
2022-11-12T11:24:03.960Z,10.90
2022-11-12T11:27:05.596Z,10.90
2022-11-12T11:29:50.819Z,10.90
2022-11-12T11:33:06.703Z,11.00
2022-11-12T11:35:55.110Z,11.00
2022-11-12T11:38:54.815Z,11.00
2022-11-12T11:42:07.541Z,11.00
2022-11-12T11:45:05.029Z,11.10
2022-11-12T11:48:08.798Z,11.10
2022-11-12T11:51:12.448Z,11.10
2022-11-12T11:54:32.078Z,11.10
2022-11-12T11:57:26.298Z,11.20
2022-11-12T12:00:23.060Z,11.20
2022-11-12T12:03:23.903Z,11.20
2022-11-12T12:06:26.527Z,11.20
2022-11-12T12:09:18.079Z,11.30
2022-11-12T12:12:16.101Z,11.30
2022-11-12T12:15:30.411Z,11.30
2022-11-12T12:18:29.919Z,11.30
2022-11-12T12:21:21.024Z,11.30
2022-11-12T12:24:25.526Z,11.30
2022-11-12T12:27:24.480Z,11.30
2022-11-12T12:30:19.566Z,11.30
2022-11-12T12:33:29.280Z,11.40
2022-11-12T12:36:20.961Z,11.40
2022-11-12T12:39:50.378Z,11.40
2022-11-12T12:42:59.859Z,11.40
2022-11-12T12:45:47.510Z,11.40
2022-11-12T12:48:36.791Z,11.50
2022-11-12T12:51:22.677Z,11.40
2022-11-12T12:54:36.144Z,11.50
2022-11-12T12:57:39.552Z,11.50
2022-11-12T13:00:31.458Z,11.50
2022-11-12T13:03:58.775Z,11.50
2022-11-12T13:06:47.166Z,11.50
2022-11-12T13:09:33.396Z,11.50
2022-11-12T13:12:19.300Z,11.50
2022-11-12T13:15:15.939Z,11.60
2022-11-12T13:18:01.949Z,11.60
2022-11-12T13:21:14.204Z,11.60
2022-11-12T13:24:08.275Z,11.60
2022-11-12T13:27:00.069Z,11.60
2022-11-12T13:29:47.877Z,11.60
2022-11-12T13:32:42.176Z,11.70
2022-11-12T13:35:35.902Z,11.60
2022-11-12T13:38:22.139Z,11.60
2022-11-12T13:41:19.612Z,11.60
2022-11-12T13:44:09.181Z,11.60
2022-11-12T13:46:56.165Z,11.60
2022-11-12T13:49:43.586Z,11.60
2022-11-12T13:52:29.382Z,11.60
2022-11-12T13:55:16.468Z,11.60
2022-11-12T13:58:01.831Z,11.70
2022-11-12T14:00:57.159Z,11.60
2022-11-12T14:03:46.747Z,11.70
2022-11-12T14:06:38.979Z,11.70
2022-11-12T14:09:51.033Z,11.70
2022-11-12T14:13:00.525Z,11.70
2022-11-12T14:16:21.640Z,11.70
2022-11-12T14:19:18.552Z,11.70
2022-11-12T14:22:18.991Z,11.70
2022-11-12T14:25:11.533Z,11.70
2022-11-12T14:27:57.246Z,11.70
2022-11-12T14:30:45.726Z,11.70
2022-11-12T14:33:32.685Z,11.70
2022-11-12T14:36:19.718Z,11.70
2022-11-12T14:39:06.690Z,11.70
2022-11-12T14:41:53.079Z,11.60
2022-11-12T14:44:39.171Z,11.70
2022-11-12T14:47:24.839Z,11.60
2022-11-12T14:50:17.578Z,11.60
2022-11-12T14:53:11.504Z,11.60
2022-11-12T14:55:58.266Z,11.50
2022-11-12T14:58:44.177Z,11.50
2022-11-12T15:02:20.520Z,11.50
2022-11-12T15:04:50.799Z,11.50
2022-11-12T15:07:52.598Z,11.40
2022-11-12T15:10:45.826Z,11.40
2022-11-12T15:13:40.056Z,11.30
2022-11-12T15:16:32.922Z,11.30
2022-11-12T15:19:25.419Z,11.30
2022-11-12T15:22:21.192Z,11.30
2022-11-12T15:25:30.828Z,11.20
2022-11-12T15:28:25.576Z,11.20
2022-11-12T15:31:22.067Z,11.20
2022-11-12T15:34:26.409Z,11.10
2022-11-12T15:37:19.507Z,11.10
2022-11-12T15:40:15.970Z,11.00
2022-11-12T15:43:02.767Z,11.00
2022-11-12T15:45:50.340Z,11.00
2022-11-12T15:48:36.608Z,10.90
2022-11-12T15:51:22.600Z,10.90
2022-11-12T15:54:08.418Z,10.90
2022-11-12T15:56:53.712Z,10.80
2022-11-12T15:59:39.424Z,10.80
2022-11-12T16:02:25.905Z,10.70
2022-11-12T16:05:15.945Z,10.70
2022-11-12T16:08:01.651Z,10.60
2022-11-12T16:10:47.622Z,10.60
2022-11-12T16:13:34.564Z,10.60
2022-11-12T16:16:19.888Z,10.50
2022-11-12T16:19:17.713Z,10.40
2022-11-12T16:22:04.314Z,10.40
2022-11-12T16:24:49.722Z,10.30
2022-11-12T16:27:38.004Z,10.20
2022-11-12T16:30:27.293Z,10.10
2022-11-12T16:33:13.964Z,10.10
2022-11-12T16:35:59.584Z,10.00
2022-11-12T16:38:46.714Z,9.90
2022-11-12T16:41:32.181Z,9.90
2022-11-12T16:44:17.937Z,9.80
2022-11-12T16:47:04.769Z,9.80
2022-11-12T16:49:50.377Z,9.80
2022-11-12T16:52:35.947Z,9.80
2022-11-12T16:55:22.179Z,9.70
2022-11-12T16:58:07.439Z,9.70
2022-11-12T17:00:53.465Z,9.70
2022-11-12T17:03:39.009Z,9.70
2022-11-12T17:06:36.789Z,9.60
2022-11-12T17:09:22.326Z,9.60
2022-11-12T17:12:08.324Z,9.60
2022-11-12T17:14:53.760Z,9.50
2022-11-12T17:17:39.558Z,9.50
2022-11-12T17:20:25.279Z,9.50
2022-11-12T17:23:10.890Z,9.40
2022-11-12T17:26:04.803Z,9.40
2022-11-12T17:28:55.575Z,9.40
2022-11-12T17:31:49.273Z,9.40
2022-11-12T17:34:35.053Z,9.30
2022-11-12T17:37:20.482Z,9.30
2022-11-12T17:40:07.292Z,9.20
2022-11-12T17:42:53.889Z,9.20
2022-11-12T17:45:49.484Z,9.20
2022-11-12T17:48:37.559Z,9.20
2022-11-12T17:51:28.373Z,9.10
2022-11-12T17:54:13.489Z,9.10
2022-11-12T17:56:58.957Z,9.10
2022-11-12T17:59:44.452Z,9.00
2022-11-12T18:02:29.788Z,9.00
2022-11-12T18:05:15.580Z,9.00
2022-11-12T18:08:01.291Z,9.00
2022-11-12T18:10:47.197Z,9.00
2022-11-12T18:13:33.429Z,9.00
2022-11-12T18:16:24.595Z,8.90
2022-11-12T18:19:11.395Z,9.00
2022-11-12T18:21:57.229Z,8.90
2022-11-12T18:24:42.822Z,8.90
2022-11-12T18:27:28.089Z,8.80
2022-11-12T18:30:19.002Z,8.70
2022-11-12T18:33:05.800Z,8.60
2022-11-12T18:36:01.594Z,8.60
2022-11-12T18:38:50.112Z,8.50
2022-11-12T18:41:36.053Z,8.40
2022-11-12T18:44:25.862Z,8.40
2022-11-12T18:47:11.617Z,8.40
2022-11-12T18:49:57.243Z,8.40
2022-11-12T18:52:43.500Z,8.40
2022-11-12T18:55:29.074Z,8.40
2022-11-12T18:58:14.930Z,8.30
2022-11-12T19:01:10.832Z,8.30
2022-11-12T19:03:57.163Z,8.30
2022-11-12T19:06:42.654Z,8.20
2022-11-12T19:09:28.300Z,8.30
2022-11-12T19:12:13.606Z,8.30
2022-11-12T19:14:59.269Z,8.30
2022-11-12T19:17:45.136Z,10.10
2022-11-12T19:20:31.353Z,8.40
2022-11-12T19:23:17.193Z,8.30
2022-11-12T19:26:04.662Z,8.30
2022-11-12T19:28:50.408Z,8.30
2022-11-12T19:31:36.995Z,8.30
2022-11-12T19:34:24.391Z,8.20
2022-11-12T19:40:20.411Z,8.10
2022-11-12T19:43:06.052Z,8.00
2022-11-12T19:45:53.834Z,8.00
2022-11-12T19:48:40.799Z,8.00
2022-11-12T19:51:27.004Z,8.00
2022-11-12T19:54:13.883Z,7.90
2022-11-12T19:57:01.445Z,7.90
2022-11-12T19:59:48.260Z,7.90
2022-11-12T20:02:35.450Z,7.90
2022-11-12T20:05:21.461Z,7.90
2022-11-12T20:08:09.105Z,7.90
2022-11-12T20:10:55.519Z,7.90
2022-11-12T20:13:41.992Z,7.90
2022-11-12T20:16:29.585Z,7.80
2022-11-12T20:19:15.211Z,7.90
2022-11-12T20:22:00.920Z,7.80
2022-11-12T20:24:47.320Z,7.80
2022-11-12T20:27:33.055Z,7.80
2022-11-12T20:30:18.631Z,8.60
2022-11-12T20:33:06.087Z,7.80
2022-11-12T20:35:51.989Z,7.80
2022-11-12T20:38:40.678Z,7.80
2022-11-12T20:41:27.241Z,7.80
2022-11-12T20:44:13.980Z,7.80
2022-11-12T20:47:01.452Z,7.80
2022-11-12T20:49:46.765Z,7.80
2022-11-12T20:52:32.429Z,7.70
2022-11-12T20:55:18.406Z,7.70
2022-11-12T20:58:03.961Z,7.70
2022-11-12T21:00:50.714Z,7.70
2022-11-12T21:03:37.678Z,7.60
2022-11-12T21:06:26.413Z,7.60
2022-11-12T21:09:11.787Z,7.60
2022-11-12T21:11:57.263Z,7.60
2022-11-12T21:14:47.436Z,7.60
2022-11-12T21:17:35.634Z,7.60
2022-11-12T21:20:21.266Z,7.60
2022-11-12T21:23:06.696Z,7.60
2022-11-12T21:25:52.252Z,7.60
2022-11-12T21:28:38.436Z,7.60
2022-11-12T21:31:25.740Z,7.50
2022-11-12T21:34:11.376Z,7.50
2022-11-12T21:36:57.326Z,7.50
2022-11-12T21:39:42.853Z,7.50
2022-11-12T21:42:28.258Z,7.50
2022-11-12T21:45:14.010Z,7.60
2022-11-12T21:47:59.964Z,7.60
2022-11-12T21:50:45.788Z,7.60
2022-11-12T21:53:30.891Z,7.70
2022-11-12T21:56:18.590Z,7.70
2022-11-12T21:59:04.541Z,7.70
2022-11-12T22:01:49.612Z,7.70
2022-11-12T22:04:35.352Z,7.70
2022-11-12T22:07:20.810Z,7.60
2022-11-12T22:10:06.820Z,7.50
2022-11-12T22:13:19.840Z,7.60
2022-11-12T22:15:58.793Z,7.60
2022-11-12T22:18:47.013Z,7.60
2022-11-12T22:21:39.473Z,7.50
2022-11-12T22:24:25.692Z,7.40
2022-11-12T22:27:11.611Z,7.40
2022-11-12T22:29:57.297Z,7.30
2022-11-12T22:32:42.647Z,7.40
2022-11-12T22:35:28.277Z,7.40
2022-11-12T22:38:13.890Z,7.30
2022-11-12T22:41:08.142Z,7.30
2022-11-12T22:43:59.007Z,7.30
2022-11-12T22:46:44.623Z,7.40
2022-11-12T22:49:29.983Z,7.30
2022-11-12T22:52:15.336Z,7.20
2022-11-12T22:55:00.941Z,7.20
2022-11-12T22:57:46.393Z,7.20
2022-11-12T23:00:32.604Z,7.10
2022-11-12T23:03:17.925Z,7.10
2022-11-12T23:06:06.237Z,7.20
2022-11-12T23:08:55.265Z,7.20
2022-11-12T23:11:40.804Z,7.20
2022-11-12T23:14:26.329Z,7.10
2022-11-12T23:17:11.747Z,7.20
2022-11-12T23:19:57.138Z,7.00
2022-11-12T23:22:42.557Z,7.00
2022-11-12T23:25:29.264Z,7.00
2022-11-12T23:28:14.578Z,6.90
2022-11-12T23:31:00.605Z,6.90
2022-11-12T23:33:47.273Z,6.90
2022-11-12T23:36:33.167Z,6.90
2022-11-12T23:39:18.769Z,6.90
2022-11-12T23:42:04.032Z,6.90
2022-11-12T23:44:49.711Z,6.90
2022-11-12T23:47:35.306Z,6.90
2022-11-12T23:50:20.749Z,6.90
2022-11-12T23:53:06.384Z,6.90
2022-11-12T23:55:51.794Z,6.90
2022-11-12T23:58:38.730Z,6.90
